sensor_id;sensor_type;location;lat;lon;timestamp;P1;durP1;ratioP1;P2;durP2;ratioP2
41568;SDS011;27283;52.504;13.358;2022-12-07T00:00:31;31.35;;;12.75;;
41568;SDS011;27283;52.504;13.358;2022-12-07T00:03:09;33.67;;;13.10;;
41568;SDS011;27283;52.504;13.358;2022-12-07T00:05:42;35.92;;;13.98;;
41568;SDS011;27283;52.504;13.358;2022-12-07T00:08:14;30.50;;;12.88;;
41568;SDS011;27283;52.504;13.358;2022-12-07T00:10:49;33.38;;;13.32;;
41568;SDS011;27283;52.504;13.358;2022-12-07T00:13:25;32.22;;;12.93;;
41568;SDS011;27283;52.504;13.358;2022-12-07T00:15:59;34.60;;;14.00;;
41568;SDS011;27283;52.504;13.358;2022-12-07T00:18:37;35.20;;;13.70;;
41568;SDS011;27283;52.504;13.358;2022-12-07T00:21:10;24.73;;;11.63;;
41568;SDS011;27283;52.504;13.358;2022-12-07T00:23:44;30.85;;;12.32;;
41568;SDS011;27283;52.504;13.358;2022-12-07T00:26:21;29.52;;;12.73;;
41568;SDS011;27283;52.504;13.358;2022-12-07T00:28:55;29.05;;;12.45;;
41568;SDS011;27283;52.504;13.358;2022-12-07T00:31:29;25.02;;;11.75;;
41568;SDS011;27283;52.504;13.358;2022-12-07T00:36:44;28.85;;;12.40;;
41568;SDS011;27283;52.504;13.358;2022-12-07T00:39:16;26.20;;;12.13;;
41568;SDS011;27283;52.504;13.358;2022-12-07T00:41:51;23.35;;;10.80;;
41568;SDS011;27283;52.504;13.358;2022-12-07T00:44:22;27.20;;;11.50;;
41568;SDS011;27283;52.504;13.358;2022-12-07T00:46:54;22.60;;;10.73;;
41568;SDS011;27283;52.504;13.358;2022-12-07T00:49:26;25.25;;;10.93;;
41568;SDS011;27283;52.504;13.358;2022-12-07T00:51:58;21.35;;;10.45;;
41568;SDS011;27283;52.504;13.358;2022-12-07T00:54:29;21.33;;;10.38;;
41568;SDS011;27283;52.504;13.358;2022-12-07T00:57:04;20.60;;;10.88;;
41568;SDS011;27283;52.504;13.358;2022-12-07T00:59:35;17.23;;;9.40;;
41568;SDS011;27283;52.504;13.358;2022-12-07T01:02:07;19.77;;;10.32;;
41568;SDS011;27283;52.504;13.358;2022-12-07T01:04:39;17.90;;;8.88;;
41568;SDS011;27283;52.504;13.358;2022-12-07T01:07:11;20.58;;;9.73;;
41568;SDS011;27283;52.504;13.358;2022-12-07T01:09:44;19.25;;;9.85;;
41568;SDS011;27283;52.504;13.358;2022-12-07T01:12:18;18.67;;;9.80;;
41568;SDS011;27283;52.504;13.358;2022-12-07T01:14:50;19.00;;;9.75;;
41568;SDS011;27283;52.504;13.358;2022-12-07T01:17:22;20.48;;;9.65;;
41568;SDS011;27283;52.504;13.358;2022-12-07T01:19:53;15.60;;;8.80;;
41568;SDS011;27283;52.504;13.358;2022-12-07T01:22:25;16.55;;;9.05;;
41568;SDS011;27283;52.504;13.358;2022-12-07T01:24:57;20.00;;;9.40;;
41568;SDS011;27283;52.504;13.358;2022-12-07T01:27:32;16.70;;;8.30;;
41568;SDS011;27283;52.504;13.358;2022-12-07T01:30:05;16.83;;;8.88;;
41568;SDS011;27283;52.504;13.358;2022-12-07T01:32:43;17.92;;;9.45;;
41568;SDS011;27283;52.504;13.358;2022-12-07T01:35:15;16.08;;;8.57;;
41568;SDS011;27283;52.504;13.358;2022-12-07T01:37:46;17.33;;;8.80;;
41568;SDS011;27283;52.504;13.358;2022-12-07T01:40:17;16.25;;;8.63;;
41568;SDS011;27283;52.504;13.358;2022-12-07T01:42:51;17.55;;;8.85;;
41568;SDS011;27283;52.504;13.358;2022-12-07T01:45:36;16.45;;;7.88;;
41568;SDS011;27283;52.504;13.358;2022-12-07T01:48:12;18.98;;;8.85;;
41568;SDS011;27283;52.504;13.358;2022-12-07T01:50:47;13.55;;;8.20;;
41568;SDS011;27283;52.504;13.358;2022-12-07T01:53:24;18.50;;;8.52;;
41568;SDS011;27283;52.504;13.358;2022-12-07T01:56:00;15.50;;;8.27;;
41568;SDS011;27283;52.504;13.358;2022-12-07T01:58:34;16.35;;;8.48;;
41568;SDS011;27283;52.504;13.358;2022-12-07T02:01:06;13.20;;;7.35;;
41568;SDS011;27283;52.504;13.358;2022-12-07T02:03:39;16.38;;;8.52;;
41568;SDS011;27283;52.504;13.358;2022-12-07T02:06:12;15.98;;;8.20;;
41568;SDS011;27283;52.504;13.358;2022-12-07T02:08:47;16.10;;;7.97;;
41568;SDS011;27283;52.504;13.358;2022-12-07T02:11:19;15.35;;;7.60;;
41568;SDS011;27283;52.504;13.358;2022-12-07T02:13:55;15.25;;;7.55;;
41568;SDS011;27283;52.504;13.358;2022-12-07T02:16:28;14.93;;;7.93;;
41568;SDS011;27283;52.504;13.358;2022-12-07T02:19:23;14.20;;;7.60;;
41568;SDS011;27283;52.504;13.358;2022-12-07T02:22:18;17.95;;;7.40;;
41568;SDS011;27283;52.504;13.358;2022-12-07T02:25:08;17.40;;;8.13;;
41568;SDS011;27283;52.504;13.358;2022-12-07T02:27:50;17.85;;;8.88;;
41568;SDS011;27283;52.504;13.358;2022-12-07T02:30:31;15.13;;;8.50;;
41568;SDS011;27283;52.504;13.358;2022-12-07T02:33:06;18.08;;;7.70;;
41568;SDS011;27283;52.504;13.358;2022-12-07T02:35:44;18.08;;;8.60;;
41568;SDS011;27283;52.504;13.358;2022-12-07T02:38:26;17.85;;;8.38;;
41568;SDS011;27283;52.504;13.358;2022-12-07T02:41:07;19.55;;;9.30;;
41568;SDS011;27283;52.504;13.358;2022-12-07T02:43:45;17.90;;;8.95;;
41568;SDS011;27283;52.504;13.358;2022-12-07T02:46:22;21.52;;;9.20;;
41568;SDS011;27283;52.504;13.358;2022-12-07T02:48:57;18.60;;;9.38;;
41568;SDS011;27283;52.504;13.358;2022-12-07T02:51:30;21.92;;;10.35;;
41568;SDS011;27283;52.504;13.358;2022-12-07T02:54:07;22.05;;;9.80;;
41568;SDS011;27283;52.504;13.358;2022-12-07T02:56:44;23.75;;;9.73;;
41568;SDS011;27283;52.504;13.358;2022-12-07T02:59:22;23.33;;;11.02;;
41568;SDS011;27283;52.504;13.358;2022-12-07T03:02:08;23.42;;;10.27;;
41568;SDS011;27283;52.504;13.358;2022-12-07T03:04:50;21.38;;;10.27;;
41568;SDS011;27283;52.504;13.358;2022-12-07T03:07:33;22.13;;;10.40;;
41568;SDS011;27283;52.504;13.358;2022-12-07T03:10:14;20.33;;;9.82;;
41568;SDS011;27283;52.504;13.358;2022-12-07T03:12:53;21.35;;;9.60;;
41568;SDS011;27283;52.504;13.358;2022-12-07T03:15:34;29.27;;;10.13;;
41568;SDS011;27283;52.504;13.358;2022-12-07T03:18:16;23.35;;;10.80;;
41568;SDS011;27283;52.504;13.358;2022-12-07T03:20:52;22.65;;;10.73;;
41568;SDS011;27283;52.504;13.358;2022-12-07T03:23:28;29.52;;;11.75;;
41568;SDS011;27283;52.504;13.358;2022-12-07T03:26:03;24.83;;;11.32;;
41568;SDS011;27283;52.504;13.358;2022-12-07T03:28:39;27.08;;;11.10;;
41568;SDS011;27283;52.504;13.358;2022-12-07T03:31:28;26.20;;;12.18;;
41568;SDS011;27283;52.504;13.358;2022-12-07T03:34:06;28.40;;;12.70;;
41568;SDS011;27283;52.504;13.358;2022-12-07T03:36:49;29.38;;;12.20;;
41568;SDS011;27283;52.504;13.358;2022-12-07T03:39:33;28.92;;;12.73;;
41568;SDS011;27283;52.504;13.358;2022-12-07T03:42:12;27.83;;;12.27;;
41568;SDS011;27283;52.504;13.358;2022-12-07T03:44:44;25.67;;;11.88;;
41568;SDS011;27283;52.504;13.358;2022-12-07T03:47:17;27.55;;;12.25;;
41568;SDS011;27283;52.504;13.358;2022-12-07T03:50:04;28.50;;;12.77;;
41568;SDS011;27283;52.504;13.358;2022-12-07T03:52:40;28.13;;;11.95;;
41568;SDS011;27283;52.504;13.358;2022-12-07T03:55:17;26.52;;;11.85;;
41568;SDS011;27283;52.504;13.358;2022-12-07T03:57:54;28.45;;;12.35;;
41568;SDS011;27283;52.504;13.358;2022-12-07T04:00:30;32.17;;;12.95;;
41568;SDS011;27283;52.504;13.358;2022-12-07T04:03:02;32.83;;;12.77;;
41568;SDS011;27283;52.504;13.358;2022-12-07T04:05:36;28.65;;;12.32;;
41568;SDS011;27283;52.504;13.358;2022-12-07T04:08:09;33.58;;;13.35;;
41568;SDS011;27283;52.504;13.358;2022-12-07T04:10:41;29.83;;;13.15;;
41568;SDS011;27283;52.504;13.358;2022-12-07T04:13:13;30.67;;;12.63;;
41568;SDS011;27283;52.504;13.358;2022-12-07T04:15:45;30.23;;;13.20;;
41568;SDS011;27283;52.504;13.358;2022-12-07T04:18:17;36.70;;;14.35;;
41568;SDS011;27283;52.504;13.358;2022-12-07T04:20:51;33.83;;;14.45;;
41568;SDS011;27283;52.504;13.358;2022-12-07T04:23:24;35.28;;;14.85;;
41568;SDS011;27283;52.504;13.358;2022-12-07T04:25:56;39.42;;;16.23;;
41568;SDS011;27283;52.504;13.358;2022-12-07T04:28:28;39.53;;;15.30;;
41568;SDS011;27283;52.504;13.358;2022-12-07T04:31:03;39.60;;;15.10;;
41568;SDS011;27283;52.504;13.358;2022-12-07T04:33:35;41.70;;;15.90;;
41568;SDS011;27283;52.504;13.358;2022-12-07T04:36:10;46.17;;;16.30;;
41568;SDS011;27283;52.504;13.358;2022-12-07T04:38:43;51.45;;;17.67;;
41568;SDS011;27283;52.504;13.358;2022-12-07T04:41:15;43.53;;;17.30;;
41568;SDS011;27283;52.504;13.358;2022-12-07T04:43:49;43.10;;;17.10;;
41568;SDS011;27283;52.504;13.358;2022-12-07T04:46:21;52.35;;;18.83;;
41568;SDS011;27283;52.504;13.358;2022-12-07T04:48:53;52.75;;;19.08;;
41568;SDS011;27283;52.504;13.358;2022-12-07T04:51:28;55.05;;;20.08;;
41568;SDS011;27283;52.504;13.358;2022-12-07T04:54:00;59.10;;;21.10;;
41568;SDS011;27283;52.504;13.358;2022-12-07T04:56:31;60.13;;;20.75;;
41568;SDS011;27283;52.504;13.358;2022-12-07T04:59:03;61.33;;;20.63;;
41568;SDS011;27283;52.504;13.358;2022-12-07T05:01:35;59.65;;;20.98;;
41568;SDS011;27283;52.504;13.358;2022-12-07T05:04:06;57.08;;;20.58;;
41568;SDS011;27283;52.504;13.358;2022-12-07T05:06:41;58.90;;;21.65;;
41568;SDS011;27283;52.504;13.358;2022-12-07T05:09:14;64.15;;;21.95;;
41568;SDS011;27283;52.504;13.358;2022-12-07T05:11:45;59.55;;;22.33;;
41568;SDS011;27283;52.504;13.358;2022-12-07T05:14:18;76.55;;;23.90;;
41568;SDS011;27283;52.504;13.358;2022-12-07T05:16:51;70.07;;;23.35;;
41568;SDS011;27283;52.504;13.358;2022-12-07T05:19:24;82.32;;;25.08;;
41568;SDS011;27283;52.504;13.358;2022-12-07T05:22:00;74.85;;;24.95;;
41568;SDS011;27283;52.504;13.358;2022-12-07T05:24:33;75.80;;;24.55;;
41568;SDS011;27283;52.504;13.358;2022-12-07T05:27:05;70.43;;;24.30;;
41568;SDS011;27283;52.504;13.358;2022-12-07T05:29:36;75.20;;;24.20;;
41568;SDS011;27283;52.504;13.358;2022-12-07T05:32:09;78.20;;;24.70;;
41568;SDS011;27283;52.504;13.358;2022-12-07T05:34:43;74.28;;;25.92;;
41568;SDS011;27283;52.504;13.358;2022-12-07T05:37:17;83.00;;;26.20;;
41568;SDS011;27283;52.504;13.358;2022-12-07T05:39:49;81.35;;;25.40;;
41568;SDS011;27283;52.504;13.358;2022-12-07T05:42:20;79.40;;;26.60;;
41568;SDS011;27283;52.504;13.358;2022-12-07T05:44:52;85.18;;;27.27;;
41568;SDS011;27283;52.504;13.358;2022-12-07T05:47:26;78.78;;;25.63;;
41568;SDS011;27283;52.504;13.358;2022-12-07T05:49:57;79.63;;;26.80;;
41568;SDS011;27283;52.504;13.358;2022-12-07T05:52:33;78.05;;;27.70;;
41568;SDS011;27283;52.504;13.358;2022-12-07T05:55:07;76.63;;;26.52;;
41568;SDS011;27283;52.504;13.358;2022-12-07T05:57:41;82.03;;;26.63;;
41568;SDS011;27283;52.504;13.358;2022-12-07T06:00:36;80.05;;;26.17;;
41568;SDS011;27283;52.504;13.358;2022-12-07T06:03:05;71.18;;;25.85;;
41568;SDS011;27283;52.504;13.358;2022-12-07T06:05:36;71.22;;;25.92;;
41568;SDS011;27283;52.504;13.358;2022-12-07T06:08:11;70.75;;;25.27;;
41568;SDS011;27283;52.504;13.358;2022-12-07T06:10:42;82.30;;;26.92;;
41568;SDS011;27283;52.504;13.358;2022-12-07T06:13:14;84.10;;;26.95;;
41568;SDS011;27283;52.504;13.358;2022-12-07T06:15:44;88.93;;;27.38;;
41568;SDS011;27283;52.504;13.358;2022-12-07T06:18:16;77.60;;;27.73;;
41568;SDS011;27283;52.504;13.358;2022-12-07T06:20:48;88.72;;;26.70;;
41568;SDS011;27283;52.504;13.358;2022-12-07T06:23:22;86.40;;;26.35;;
41568;SDS011;27283;52.504;13.358;2022-12-07T06:25:53;80.00;;;26.70;;
41568;SDS011;27283;52.504;13.358;2022-12-07T06:28:26;90.25;;;29.23;;
41568;SDS011;27283;52.504;13.358;2022-12-07T06:30:57;73.55;;;23.27;;
41568;SDS011;27283;52.504;13.358;2022-12-07T06:33:40;80.32;;;26.13;;
41568;SDS011;27283;52.504;13.358;2022-12-07T06:36:32;80.00;;;25.60;;
41568;SDS011;27283;52.504;13.358;2022-12-07T06:39:07;81.10;;;25.05;;
41568;SDS011;27283;52.504;13.358;2022-12-07T06:41:39;69.88;;;23.75;;
41568;SDS011;27283;52.504;13.358;2022-12-07T06:44:12;77.00;;;25.20;;
41568;SDS011;27283;52.504;13.358;2022-12-07T06:46:44;74.15;;;26.48;;
41568;SDS011;27283;52.504;13.358;2022-12-07T06:49:16;85.15;;;27.95;;
41568;SDS011;27283;52.504;13.358;2022-12-07T06:51:49;85.53;;;28.45;;
41568;SDS011;27283;52.504;13.358;2022-12-07T06:54:24;77.90;;;27.98;;
41568;SDS011;27283;52.504;13.358;2022-12-07T06:56:59;83.82;;;28.05;;
41568;SDS011;27283;52.504;13.358;2022-12-07T06:59:40;70.75;;;26.65;;
41568;SDS011;27283;52.504;13.358;2022-12-07T07:02:13;80.13;;;27.55;;
41568;SDS011;27283;52.504;13.358;2022-12-07T07:04:46;73.75;;;28.60;;
41568;SDS011;27283;52.504;13.358;2022-12-07T07:07:18;84.20;;;27.65;;
41568;SDS011;27283;52.504;13.358;2022-12-07T07:09:53;74.47;;;27.73;;
41568;SDS011;27283;52.504;13.358;2022-12-07T07:12:24;70.47;;;25.90;;
41568;SDS011;27283;52.504;13.358;2022-12-07T07:14:56;66.97;;;25.25;;
41568;SDS011;27283;52.504;13.358;2022-12-07T07:17:28;66.50;;;26.25;;
41568;SDS011;27283;52.504;13.358;2022-12-07T07:20:00;69.10;;;26.75;;
41568;SDS011;27283;52.504;13.358;2022-12-07T07:22:32;70.30;;;26.05;;
41568;SDS011;27283;52.504;13.358;2022-12-07T07:25:07;73.75;;;26.05;;
41568;SDS011;27283;52.504;13.358;2022-12-07T07:27:41;59.67;;;24.00;;
41568;SDS011;27283;52.504;13.358;2022-12-07T07:30:13;63.05;;;24.73;;
41568;SDS011;27283;52.504;13.358;2022-12-07T07:32:45;56.63;;;22.65;;
41568;SDS011;27283;52.504;13.358;2022-12-07T07:35:17;67.93;;;22.88;;
41568;SDS011;27283;52.504;13.358;2022-12-07T07:37:49;58.50;;;21.88;;
41568;SDS011;27283;52.504;13.358;2022-12-07T07:40:24;55.08;;;20.90;;
41568;SDS011;27283;52.504;13.358;2022-12-07T07:42:57;55.25;;;20.40;;
41568;SDS011;27283;52.504;13.358;2022-12-07T07:45:29;52.75;;;21.10;;
41568;SDS011;27283;52.504;13.358;2022-12-07T07:48:01;46.47;;;18.00;;
41568;SDS011;27283;52.504;13.358;2022-12-07T07:50:33;46.75;;;19.15;;
41568;SDS011;27283;52.504;13.358;2022-12-07T07:53:05;46.58;;;19.10;;
41568;SDS011;27283;52.504;13.358;2022-12-07T07:55:39;38.25;;;16.38;;
41568;SDS011;27283;52.504;13.358;2022-12-07T07:58:11;37.17;;;15.35;;
41568;SDS011;27283;52.504;13.358;2022-12-07T08:00:43;36.92;;;15.02;;
41568;SDS011;27283;52.504;13.358;2022-12-07T08:03:16;31.00;;;14.60;;
41568;SDS011;27283;52.504;13.358;2022-12-07T08:05:48;33.33;;;14.23;;
41568;SDS011;27283;52.504;13.358;2022-12-07T08:08:21;27.13;;;12.55;;
41568;SDS011;27283;52.504;13.358;2022-12-07T08:10:56;20.10;;;10.25;;
41568;SDS011;27283;52.504;13.358;2022-12-07T08:13:29;26.23;;;12.18;;
41568;SDS011;27283;52.504;13.358;2022-12-07T08:16:03;26.70;;;11.50;;
41568;SDS011;27283;52.504;13.358;2022-12-07T08:18:37;25.13;;;11.60;;
41568;SDS011;27283;52.504;13.358;2022-12-07T08:21:11;25.73;;;11.40;;
41568;SDS011;27283;52.504;13.358;2022-12-07T08:23:46;22.10;;;10.07;;
41568;SDS011;27283;52.504;13.358;2022-12-07T08:26:21;23.90;;;9.93;;
41568;SDS011;27283;52.504;13.358;2022-12-07T08:28:54;20.50;;;9.45;;
41568;SDS011;27283;52.504;13.358;2022-12-07T08:31:27;18.65;;;8.52;;
41568;SDS011;27283;52.504;13.358;2022-12-07T08:34:01;17.83;;;7.72;;
41568;SDS011;27283;52.504;13.358;2022-12-07T08:36:34;19.92;;;7.82;;
41568;SDS011;27283;52.504;13.358;2022-12-07T08:39:07;13.60;;;7.15;;
41568;SDS011;27283;52.504;13.358;2022-12-07T08:42:02;10.63;;;5.00;;
41568;SDS011;27283;52.504;13.358;2022-12-07T08:44:34;11.73;;;5.25;;
41568;SDS011;27283;52.504;13.358;2022-12-07T08:47:06;9.98;;;4.70;;
41568;SDS011;27283;52.504;13.358;2022-12-07T08:49:39;8.48;;;4.97;;
41568;SDS011;27283;52.504;13.358;2022-12-07T08:52:14;6.88;;;4.30;;
41568;SDS011;27283;52.504;13.358;2022-12-07T08:54:47;7.82;;;3.65;;
41568;SDS011;27283;52.504;13.358;2022-12-07T08:57:24;7.20;;;3.67;;
41568;SDS011;27283;52.504;13.358;2022-12-07T08:59:56;7.35;;;3.70;;
41568;SDS011;27283;52.504;13.358;2022-12-07T09:02:30;5.32;;;3.58;;
41568;SDS011;27283;52.504;13.358;2022-12-07T09:05:03;6.07;;;3.75;;
41568;SDS011;27283;52.504;13.358;2022-12-07T09:07:45;5.45;;;3.47;;
41568;SDS011;27283;52.504;13.358;2022-12-07T09:10:22;5.32;;;3.38;;
41568;SDS011;27283;52.504;13.358;2022-12-07T09:12:58;4.00;;;3.05;;
41568;SDS011;27283;52.504;13.358;2022-12-07T09:15:31;6.18;;;3.00;;
41568;SDS011;27283;52.504;13.358;2022-12-07T09:18:04;4.20;;;3.10;;
41568;SDS011;27283;52.504;13.358;2022-12-07T09:20:37;3.83;;;2.80;;
41568;SDS011;27283;52.504;13.358;2022-12-07T09:23:18;4.95;;;3.20;;
41568;SDS011;27283;52.504;13.358;2022-12-07T09:25:50;5.80;;;3.30;;
41568;SDS011;27283;52.504;13.358;2022-12-07T09:28:26;4.38;;;2.95;;
41568;SDS011;27283;52.504;13.358;2022-12-07T09:30:59;4.80;;;3.30;;
41568;SDS011;27283;52.504;13.358;2022-12-07T09:33:55;4.90;;;3.83;;
41568;SDS011;27283;52.504;13.358;2022-12-07T09:36:28;5.20;;;3.85;;
41568;SDS011;27283;52.504;13.358;2022-12-07T09:39:00;7.80;;;3.90;;
41568;SDS011;27283;52.504;13.358;2022-12-07T09:41:33;6.53;;;3.60;;
41568;SDS011;27283;52.504;13.358;2022-12-07T09:44:13;7.22;;;3.78;;
41568;SDS011;27283;52.504;13.358;2022-12-07T09:46:50;6.97;;;3.85;;
41568;SDS011;27283;52.504;13.358;2022-12-07T09:49:25;4.97;;;2.92;;
41568;SDS011;27283;52.504;13.358;2022-12-07T09:52:00;7.43;;;3.55;;
41568;SDS011;27283;52.504;13.358;2022-12-07T09:54:35;4.68;;;3.08;;
41568;SDS011;27283;52.504;13.358;2022-12-07T09:57:12;6.57;;;3.42;;
41568;SDS011;27283;52.504;13.358;2022-12-07T09:59:49;8.32;;;3.13;;
41568;SDS011;27283;52.504;13.358;2022-12-07T10:02:25;6.22;;;3.00;;
41568;SDS011;27283;52.504;13.358;2022-12-07T10:05:06;6.45;;;3.75;;
41568;SDS011;27283;52.504;13.358;2022-12-07T10:07:51;5.00;;;3.50;;
41568;SDS011;27283;52.504;13.358;2022-12-07T10:10:24;5.97;;;3.65;;
41568;SDS011;27283;52.504;13.358;2022-12-07T10:13:10;6.93;;;3.90;;
41568;SDS011;27283;52.504;13.358;2022-12-07T10:15:50;6.68;;;3.67;;
41568;SDS011;27283;52.504;13.358;2022-12-07T10:18:34;8.43;;;4.05;;
41568;SDS011;27283;52.504;13.358;2022-12-07T10:21:11;8.65;;;4.00;;
41568;SDS011;27283;52.504;13.358;2022-12-07T10:23:58;8.98;;;4.18;;
41568;SDS011;27283;52.504;13.358;2022-12-07T10:26:33;6.20;;;4.20;;
41568;SDS011;27283;52.504;13.358;2022-12-07T10:29:13;6.88;;;4.05;;
41568;SDS011;27283;52.504;13.358;2022-12-07T10:32:03;7.93;;;3.80;;
41568;SDS011;27283;52.504;13.358;2022-12-07T10:34:38;7.45;;;4.82;;
41568;SDS011;27283;52.504;13.358;2022-12-07T10:37:18;7.90;;;4.40;;
41568;SDS011;27283;52.504;13.358;2022-12-07T10:39:56;7.68;;;4.45;;
41568;SDS011;27283;52.504;13.358;2022-12-07T10:42:29;11.02;;;4.50;;
41568;SDS011;27283;52.504;13.358;2022-12-07T10:45:09;7.82;;;4.90;;
41568;SDS011;27283;52.504;13.358;2022-12-07T10:47:49;8.63;;;4.90;;
41568;SDS011;27283;52.504;13.358;2022-12-07T10:50:31;7.20;;;4.20;;
41568;SDS011;27283;52.504;13.358;2022-12-07T10:53:22;11.88;;;5.07;;
41568;SDS011;27283;52.504;13.358;2022-12-07T11:02:30;7.80;;;5.50;;
41568;SDS011;27283;52.504;13.358;2022-12-07T11:05:19;8.23;;;5.20;;
41568;SDS011;27283;52.504;13.358;2022-12-07T11:08:00;10.93;;;5.65;;
41568;SDS011;27283;52.504;13.358;2022-12-07T11:10:42;9.15;;;5.72;;
41568;SDS011;27283;52.504;13.358;2022-12-07T11:13:23;11.13;;;5.75;;
41568;SDS011;27283;52.504;13.358;2022-12-07T11:18:59;12.27;;;5.50;;
41568;SDS011;27283;52.504;13.358;2022-12-07T11:21:48;12.23;;;5.53;;
41568;SDS011;27283;52.504;13.358;2022-12-07T11:24:32;9.40;;;6.35;;
41568;SDS011;27283;52.504;13.358;2022-12-07T11:27:15;14.23;;;7.55;;
41568;SDS011;27283;52.504;13.358;2022-12-07T11:30:01;14.77;;;8.05;;
41568;SDS011;27283;52.504;13.358;2022-12-07T11:32:57;11.13;;;6.28;;
41568;SDS011;27283;52.504;13.358;2022-12-07T11:35:43;13.82;;;7.13;;
41568;SDS011;27283;52.504;13.358;2022-12-07T11:38:31;10.80;;;6.20;;
41568;SDS011;27283;52.504;13.358;2022-12-07T11:41:09;9.23;;;5.40;;
41568;SDS011;27283;52.504;13.358;2022-12-07T11:43:53;10.70;;;5.90;;
41568;SDS011;27283;52.504;13.358;2022-12-07T11:46:35;10.07;;;5.75;;
41568;SDS011;27283;52.504;13.358;2022-12-07T11:49:19;11.10;;;5.90;;
41568;SDS011;27283;52.504;13.358;2022-12-07T11:51:57;13.75;;;6.03;;
41568;SDS011;27283;52.504;13.358;2022-12-07T11:54:36;9.35;;;5.28;;
41568;SDS011;27283;52.504;13.358;2022-12-07T11:57:14;12.18;;;6.07;;
41568;SDS011;27283;52.504;13.358;2022-12-07T11:59:52;10.38;;;4.95;;
41568;SDS011;27283;52.504;13.358;2022-12-07T12:02:33;12.23;;;5.57;;
41568;SDS011;27283;52.504;13.358;2022-12-07T12:05:13;12.50;;;5.38;;
41568;SDS011;27283;52.504;13.358;2022-12-07T12:07:50;9.40;;;5.30;;
41568;SDS011;27283;52.504;13.358;2022-12-07T12:10:55;11.90;;;5.30;;
41568;SDS011;27283;52.504;13.358;2022-12-07T12:13:43;8.75;;;4.68;;
41568;SDS011;27283;52.504;13.358;2022-12-07T12:16:56;10.13;;;4.68;;
41568;SDS011;27283;52.504;13.358;2022-12-07T12:19:42;11.68;;;4.72;;
41568;SDS011;27283;52.504;13.358;2022-12-07T12:22:32;14.13;;;5.22;;
41568;SDS011;27283;52.504;13.358;2022-12-07T12:25:13;12.15;;;4.40;;
41568;SDS011;27283;52.504;13.358;2022-12-07T12:27:56;9.68;;;4.15;;
41568;SDS011;27283;52.504;13.358;2022-12-07T12:30:32;8.23;;;4.00;;
41568;SDS011;27283;52.504;13.358;2022-12-07T12:33:12;11.90;;;4.25;;
41568;SDS011;27283;52.504;13.358;2022-12-07T12:35:48;12.27;;;3.50;;
41568;SDS011;27283;52.504;13.358;2022-12-07T12:39:10;11.50;;;4.10;;
41568;SDS011;27283;52.504;13.358;2022-12-07T12:41:57;8.55;;;4.03;;
41568;SDS011;27283;52.504;13.358;2022-12-07T12:54:03;12.85;;;4.13;;
41568;SDS011;27283;52.504;13.358;2022-12-07T12:56:39;9.48;;;3.72;;
41568;SDS011;27283;52.504;13.358;2022-12-07T12:59:22;8.38;;;3.70;;
41568;SDS011;27283;52.504;13.358;2022-12-07T13:02:09;12.55;;;4.20;;
41568;SDS011;27283;52.504;13.358;2022-12-07T13:04:55;13.07;;;3.90;;
41568;SDS011;27283;52.504;13.358;2022-12-07T13:10:39;8.80;;;3.10;;
41568;SDS011;27283;52.504;13.358;2022-12-07T13:13:30;14.40;;;4.22;;
41568;SDS011;27283;52.504;13.358;2022-12-07T13:25:33;10.50;;;3.10;;
41568;SDS011;27283;52.504;13.358;2022-12-07T13:28:10;8.88;;;3.45;;
41568;SDS011;27283;52.504;13.358;2022-12-07T13:30:59;10.00;;;3.90;;
41568;SDS011;27283;52.504;13.358;2022-12-07T13:33:44;10.00;;;3.95;;
41568;SDS011;27283;52.504;13.358;2022-12-07T13:36:22;8.98;;;3.70;;
41568;SDS011;27283;52.504;13.358;2022-12-07T13:38:59;12.50;;;3.75;;
41568;SDS011;27283;52.504;13.358;2022-12-07T13:41:45;10.57;;;3.85;;
41568;SDS011;27283;52.504;13.358;2022-12-07T13:44:22;9.70;;;3.80;;
41568;SDS011;27283;52.504;13.358;2022-12-07T13:47:05;8.32;;;3.35;;
41568;SDS011;27283;52.504;13.358;2022-12-07T13:49:46;8.70;;;3.80;;
41568;SDS011;27283;52.504;13.358;2022-12-07T13:52:22;11.65;;;3.65;;
41568;SDS011;27283;52.504;13.358;2022-12-07T13:55:01;11.70;;;3.55;;
41568;SDS011;27283;52.504;13.358;2022-12-07T13:57:47;8.40;;;3.10;;
41568;SDS011;27283;52.504;13.358;2022-12-07T14:00:25;10.82;;;3.35;;
41568;SDS011;27283;52.504;13.358;2022-12-07T14:03:05;9.88;;;3.40;;
41568;SDS011;27283;52.504;13.358;2022-12-07T14:06:07;10.48;;;3.30;;
41568;SDS011;27283;52.504;13.358;2022-12-07T14:08:49;11.15;;;3.20;;
41568;SDS011;27283;52.504;13.358;2022-12-07T14:11:28;7.28;;;3.50;;
41568;SDS011;27283;52.504;13.358;2022-12-07T14:14:19;14.27;;;3.80;;
41568;SDS011;27283;52.504;13.358;2022-12-07T14:16:56;13.80;;;3.65;;
41568;SDS011;27283;52.504;13.358;2022-12-07T14:22:31;6.82;;;3.55;;
41568;SDS011;27283;52.504;13.358;2022-12-07T14:25:15;9.10;;;3.55;;
41568;SDS011;27283;52.504;13.358;2022-12-07T14:27:56;11.35;;;3.47;;
41568;SDS011;27283;52.504;13.358;2022-12-07T14:30:33;10.75;;;3.80;;
41568;SDS011;27283;52.504;13.358;2022-12-07T14:33:08;9.77;;;3.80;;
41568;SDS011;27283;52.504;13.358;2022-12-07T14:35:41;12.38;;;3.90;;
41568;SDS011;27283;52.504;13.358;2022-12-07T14:38:13;9.02;;;3.80;;
41568;SDS011;27283;52.504;13.358;2022-12-07T14:40:47;11.82;;;3.60;;
41568;SDS011;27283;52.504;13.358;2022-12-07T14:43:22;13.95;;;4.05;;
41568;SDS011;27283;52.504;13.358;2022-12-07T14:45:57;10.38;;;4.03;;
41568;SDS011;27283;52.504;13.358;2022-12-07T14:48:33;9.57;;;3.58;;
41568;SDS011;27283;52.504;13.358;2022-12-07T14:51:25;12.05;;;3.92;;
41568;SDS011;27283;52.504;13.358;2022-12-07T14:54:17;13.20;;;3.78;;
41568;SDS011;27283;52.504;13.358;2022-12-07T14:56:51;8.43;;;3.38;;
41568;SDS011;27283;52.504;13.358;2022-12-07T14:59:26;14.45;;;3.55;;
41568;SDS011;27283;52.504;13.358;2022-12-07T15:01:59;8.07;;;3.25;;
41568;SDS011;27283;52.504;13.358;2022-12-07T15:04:35;11.02;;;3.30;;
41568;SDS011;27283;52.504;13.358;2022-12-07T15:07:10;9.73;;;2.85;;
41568;SDS011;27283;52.504;13.358;2022-12-07T15:09:49;13.75;;;3.10;;
41568;SDS011;27283;52.504;13.358;2022-12-07T15:12:24;10.35;;;3.15;;
41568;SDS011;27283;52.504;13.358;2022-12-07T15:14:59;13.65;;;3.15;;
41568;SDS011;27283;52.504;13.358;2022-12-07T15:17:32;8.40;;;2.95;;
41568;SDS011;27283;52.504;13.358;2022-12-07T15:20:07;11.15;;;3.20;;
41568;SDS011;27283;52.504;13.358;2022-12-07T15:22:43;9.02;;;3.17;;
41568;SDS011;27283;52.504;13.358;2022-12-07T15:25:16;13.50;;;3.15;;
41568;SDS011;27283;52.504;13.358;2022-12-07T15:27:49;9.38;;;3.17;;
41568;SDS011;27283;52.504;13.358;2022-12-07T15:30:25;13.05;;;3.38;;
41568;SDS011;27283;52.504;13.358;2022-12-07T15:32:58;13.20;;;3.00;;
41568;SDS011;27283;52.504;13.358;2022-12-07T15:35:31;9.20;;;2.72;;
41568;SDS011;27283;52.504;13.358;2022-12-07T15:38:04;10.73;;;3.05;;
41568;SDS011;27283;52.504;13.358;2022-12-07T15:40:36;9.57;;;3.38;;
41568;SDS011;27283;52.504;13.358;2022-12-07T15:43:09;14.80;;;3.92;;
41568;SDS011;27283;52.504;13.358;2022-12-07T15:46:04;14.70;;;4.20;;
41568;SDS011;27283;52.504;13.358;2022-12-07T15:48:34;9.55;;;3.55;;
41568;SDS011;27283;52.504;13.358;2022-12-07T15:51:06;11.90;;;4.00;;